Thunder radar more information blitzortung!


Radar de pluja more information rain snow radar


Visita la nostra xarxa de llocs de meteo:

Template documentation
and downloads

And another site



No particular awareness of the weather is required.    There are no Weather-warnings

Pagina Historial Weather Underground text

Diari Resum Abril 9, 2016 Unitats:  Mètric    Imperial   Tant
« Previous Dia
SegĂźent Dia »
Diari Setmana Mensual Anual Personalitzada
  Maxima: Minima: Media:
Temperatura: 21.5 °C 6.5 °C 15 °C
Punt de rosada: 5.5 °C 0.1 °C 3.3 °C
Humitat: 72 % 32 % 47 %
Wind Speed: 22.2 km/h 0.0 km/h 7.7 km/h
RĂ fegues de vent: 22.2 km/h - -
Vent:- - SW
Pression baro: 1011.7 hPa 1007.0 hPa -
Precipitacions: 0.0 mm    
Historical Graphs
 
 
Dades de taula per Abril 9, 2016
Temps Temperatura Punt de rosada Pression baro Vent Wind Speed RĂ fegues de vent Humitat Rainfall Rate (Hourly)
00:00 8.2 °C 3.3 °C 1011.7 hPa West 1.6 km/h 1.6 km/h 71 % 0.0 mm
00:05 8.2 °C 3.4 °C 1011.7 hPa West 1.6 km/h 1.6 km/h 72 % 0.0 mm
00:15 7.0 °C 0.2 °C 1010.0 hPa WNW 1.6 km/h 6.4 km/h 62 % 0.0 mm
00:25 7.0 °C 0.2 °C 1010.0 hPa West 1.6 km/h 6.4 km/h 62 % 0.0 mm
00:35 7.0 °C 0.2 °C 1010.0 hPa West 4.8 km/h 6.4 km/h 62 % 0.0 mm
00:45 7.0 °C 0.2 °C 1010.0 hPa West 1.6 km/h 9.7 km/h 62 % 0.0 mm
00:55 6.9 °C 0.1 °C 1010.0 hPa WSW 1.6 km/h 6.4 km/h 62 % 0.0 mm
01:15 6.7 °C 0.2 °C 1010.0 hPa SSW 4.8 km/h 6.4 km/h 63 % 0.0 mm
01:25 6.6 °C 0.3 °C 1010.7 hPa SW 4.8 km/h 6.4 km/h 64 % 0.0 mm
01:35 6.6 °C 0.3 °C 1010.7 hPa WSW 3.2 km/h 3.2 km/h 64 % 0.0 mm
01:45 6.6 °C 0.3 °C 1010.0 hPa SE 1.6 km/h 4.8 km/h 64 % 0.0 mm
01:55 6.5 °C 0.2 °C 1010.0 hPa East 3.2 km/h 6.4 km/h 64 % 0.0 mm
02:05 6.5 °C 0.2 °C 1010.0 hPa ENE 1.6 km/h 8.0 km/h 64 % 0.0 mm
02:15 6.5 °C 0.2 °C 1010.7 hPa NNE 1.6 km/h 4.8 km/h 64 % 0.0 mm
02:25 6.5 °C 0.2 °C 1010.7 hPa NW 1.6 km/h 3.2 km/h 64 % 0.0 mm
02:35 6.5 °C 0.2 °C 1010.7 hPa WSW 4.8 km/h 8.0 km/h 64 % 0.0 mm
02:45 6.6 °C 0.5 °C 1010.0 hPa West 4.8 km/h 9.7 km/h 65 % 0.0 mm
03:15 6.8 °C 0.4 °C 1010.7 hPa SW 9.7 km/h 9.7 km/h 64 % 0.0 mm
03:25 6.9 °C 0.6 °C 1010.7 hPa North 8.0 km/h 8.0 km/h 64 % 0.0 mm
03:35 7.0 °C 0.7 °C 1010.7 hPa NNW 3.2 km/h 6.4 km/h 64 % 0.0 mm
03:45 7.0 °C 0.7 °C 1010.7 hPa SW 4.8 km/h 6.4 km/h 64 % 0.0 mm
03:55 7.2 °C 0.8 °C 1010.7 hPa SW 4.8 km/h 9.7 km/h 64 % 0.0 mm
04:05 7.3 °C 0.7 °C 1010.7 hPa West 4.8 km/h 4.8 km/h 63 % 0.0 mm
04:15 7.5 °C 0.9 °C 1010.7 hPa WSW 1.6 km/h 6.4 km/h 63 % 0.0 mm
04:25 7.5 °C 0.9 °C 1010.7 hPa SW 1.6 km/h 4.8 km/h 63 % 0.0 mm
04:35 7.6 °C 1.0 °C 1010.7 hPa SSW 1.6 km/h 4.8 km/h 63 % 0.0 mm
04:45 8.1 °C 1.2 °C 1011.7 hPa SW 4.8 km/h 6.4 km/h 62 % 0.0 mm
04:55 9.0 °C 2.1 °C 1010.7 hPa SW 4.8 km/h 4.8 km/h 62 % 0.0 mm
05:05 9.6 °C 2.2 °C 1010.7 hPa West 1.6 km/h 6.4 km/h 60 % 0.0 mm
05:15 10.4 °C 2.5 °C 1010.7 hPa WNW 3.2 km/h 3.2 km/h 58 % 0.0 mm
05:35 11.1 °C 2.1 °C 1010.0 hPa West 3.2 km/h 8.0 km/h 54 % 0.0 mm
05:45 11.6 °C 2.6 °C 1010.7 hPa West 3.2 km/h 4.8 km/h 54 % 0.0 mm
05:55 11.8 °C 2.5 °C 1010.0 hPa WSW 4.8 km/h 6.4 km/h 53 % 0.0 mm
06:05 12.3 °C 2.7 °C 1010.0 hPa SW 4.8 km/h 8.0 km/h 52 % 0.0 mm
06:15 12.9 °C 3.0 °C 1010.0 hPa WSW 3.2 km/h 6.4 km/h 51 % 0.0 mm
06:25 13.3 °C 3.1 °C 1010.0 hPa WSW 4.8 km/h 8.0 km/h 50 % 0.0 mm
11:32 13.7 °C 2.9 °C 1010.0 hPa WSW 9.3 km/h 9.5 km/h 48 % 0.0 mm
11:37 13.7 °C 2.6 °C 1010.0 hPa SW 9.3 km/h 9.3 km/h 47 % 0.0 mm
11:42 14.1 °C 2.9 °C 1010.0 hPa West 9.3 km/h 9.3 km/h 47 % 0.0 mm
11:47 14.3 °C 3.1 °C 1010.0 hPa WSW 9.3 km/h 9.3 km/h 47 % 0.0 mm
11:52 14.7 °C 3.2 °C 1010.0 hPa WSW 7.4 km/h 7.4 km/h 46 % 0.0 mm
11:57 14.9 °C 3.1 °C 1010.0 hPa WSW 9.3 km/h 9.3 km/h 45 % 0.0 mm
12:02 15.1 °C 3.2 °C 1009.0 hPa SW 7.4 km/h 7.4 km/h 45 % 0.0 mm
12:07 15.2 °C 2.7 °C 1009.0 hPa WSW 13.0 km/h 13.0 km/h 43 % 0.0 mm
12:12 15.5 °C 2.9 °C 1009.0 hPa WSW 9.3 km/h 9.3 km/h 43 % 0.0 mm
12:17 16.0 °C 3.4 °C 1010.0 hPa WSW 11.1 km/h 11.1 km/h 43 % 0.0 mm
12:22 16.1 °C 3.2 °C 1010.0 hPa SW 8.7 km/h 8.7 km/h 42 % 0.0 mm
12:32 16.2 °C 2.9 °C 1010.0 hPa WSW 13.0 km/h 13.0 km/h 41 % 0.0 mm
12:37 16.4 °C 3.4 °C 1010.0 hPa WSW 9.3 km/h 9.3 km/h 42 % 0.0 mm
12:42 16.6 °C 3.3 °C 1010.0 hPa WSW 13.0 km/h 13.0 km/h 41 % 0.0 mm
12:47 16.5 °C 2.8 °C 1010.0 hPa WSW 14.8 km/h 14.8 km/h 40 % 0.0 mm
12:52 16.7 °C 2.7 °C 1010.0 hPa West 9.5 km/h 9.5 km/h 39 % 0.0 mm
12:57 16.6 °C 2.6 °C 1010.0 hPa WSW 13.0 km/h 13.0 km/h 39 % 0.0 mm
13:02 16.5 °C 2.5 °C 1010.0 hPa WSW 9.3 km/h 9.3 km/h 39 % 0.0 mm
13:07 16.7 °C 3.0 °C 1010.0 hPa West 16.7 km/h 16.7 km/h 40 % 0.0 mm
13:12 16.9 °C 3.2 °C 1010.0 hPa WSW 14.8 km/h 14.8 km/h 40 % 0.0 mm
13:17 17.2 °C 3.4 °C 1009.0 hPa WSW 11.1 km/h 11.1 km/h 40 % 0.0 mm
13:27 17.3 °C 3.6 °C 1009.0 hPa WSW 9.3 km/h 9.3 km/h 40 % 0.0 mm
13:32 17.3 °C 3.6 °C 1009.0 hPa SW 16.7 km/h 16.7 km/h 40 % 0.0 mm
13:42 17.3 °C 3.2 °C 1009.0 hPa WNW 10.0 km/h 10.0 km/h 39 % 0.0 mm
13:47 17.3 °C 3.2 °C 1009.0 hPa WSW 5.6 km/h 5.6 km/h 39 % 0.0 mm
13:52 17.3 °C 3.2 °C 1009.0 hPa West 13.0 km/h 13.0 km/h 39 % 0.0 mm
13:57 17.3 °C 3.2 °C 1009.0 hPa WSW 11.1 km/h 11.1 km/h 39 % 0.0 mm
14:02 17.3 °C 3.2 °C 1009.0 hPa WSW 9.7 km/h 9.7 km/h 39 % 0.0 mm
14:07 17.3 °C 3.2 °C 1009.0 hPa SW 6.4 km/h 6.4 km/h 39 % 0.0 mm
14:12 18.3 °C 3.7 °C 1009.0 hPa WSW 18.5 km/h 18.5 km/h 38 % 0.0 mm
14:17 18.3 °C 3.7 °C 1009.0 hPa WNW 7.4 km/h 7.4 km/h 38 % 0.0 mm
14:22 18.3 °C 3.7 °C 1009.0 hPa WNW 11.1 km/h 11.1 km/h 38 % 0.0 mm
14:27 18.3 °C 3.7 °C 1009.0 hPa SW 14.8 km/h 14.8 km/h 38 % 0.0 mm
14:32 18.3 °C 3.7 °C 1009.0 hPa SW 7.4 km/h 7.4 km/h 38 % 0.0 mm
14:37 18.3 °C 3.7 °C 1009.0 hPa West 7.4 km/h 7.4 km/h 38 % 0.0 mm
14:42 19.0 °C 3.6 °C 1009.0 hPa WSW 20.4 km/h 20.4 km/h 36 % 0.0 mm
14:47 18.9 °C 3.9 °C 1009.0 hPa WSW 22.2 km/h 22.2 km/h 37 % 0.0 mm
14:52 18.7 °C 3.3 °C 1009.0 hPa WSW 16.7 km/h 16.7 km/h 36 % 0.0 mm
14:57 18.7 °C 3.3 °C 1009.0 hPa SE 11.1 km/h 11.1 km/h 36 % 0.0 mm
15:02 19.0 °C 3.6 °C 1009.0 hPa WSW 10.0 km/h 10.0 km/h 36 % 0.0 mm
15:07 19.0 °C 3.6 °C 1009.0 hPa West 13.0 km/h 13.0 km/h 36 % 0.0 mm
15:12 19.2 °C 4.2 °C 1009.0 hPa South 13.0 km/h 13.0 km/h 37 % 0.0 mm
15:17 19.4 °C 3.9 °C 1008.0 hPa NNE 9.3 km/h 9.3 km/h 36 % 0.0 mm
15:22 19.4 °C 3.9 °C 1008.0 hPa SW 9.5 km/h 9.5 km/h 36 % 0.0 mm
15:27 19.4 °C 3.9 °C 1008.0 hPa WNW 9.3 km/h 9.3 km/h 36 % 0.0 mm
15:32 19.4 °C 3.9 °C 1008.0 hPa WSW 14.0 km/h 14.0 km/h 36 % 0.0 mm
15:37 19.8 °C 3.9 °C 1008.0 hPa WSW 11.1 km/h 11.1 km/h 35 % 0.0 mm
15:42 19.9 °C 3.6 °C 1008.0 hPa WSW 14.8 km/h 14.8 km/h 34 % 0.0 mm
15:47 20.4 °C 4.0 °C 1008.0 hPa WNW 9.3 km/h 9.3 km/h 34 % 0.0 mm
15:52 20.5 °C 4.5 °C 1008.0 hPa WNW 16.7 km/h 16.7 km/h 35 % 0.0 mm
15:57 20.4 °C 4.0 °C 1008.0 hPa South 13.0 km/h 13.0 km/h 34 % 0.0 mm
16:02 20.0 °C 3.2 °C 1008.0 hPa WSW 14.8 km/h 14.8 km/h 33 % 0.0 mm
16:07 20.1 °C 3.7 °C 1008.0 hPa SW 9.3 km/h 9.3 km/h 34 % 0.0 mm
16:12 20.1 °C 3.7 °C 1008.0 hPa NNW 13.0 km/h 13.0 km/h 34 % 0.0 mm
16:17 20.1 °C 3.7 °C 1008.0 hPa West 7.4 km/h 7.4 km/h 34 % 0.0 mm
16:22 20.8 °C 4.8 °C 1008.0 hPa SW 7.4 km/h 7.4 km/h 35 % 0.0 mm
16:27 21.1 °C 4.6 °C 1008.0 hPa WSW 14.8 km/h 14.8 km/h 34 % 0.0 mm
16:33 20.5 °C 3.7 °C 1008.0 hPa West 10.0 km/h 10.0 km/h 33 % 0.0 mm
16:38 21.0 °C 4.6 °C 1008.0 hPa West 9.3 km/h 9.3 km/h 34 % 0.0 mm
16:43 21.0 °C 4.6 °C 1008.0 hPa SW 5.3 km/h 5.3 km/h 34 % 0.0 mm
16:48 21.1 °C 4.6 °C 1008.0 hPa SW 7.4 km/h 7.4 km/h 34 % 0.0 mm
16:53 20.6 °C 3.8 °C 1008.0 hPa WSW 13.0 km/h 13.0 km/h 33 % 0.0 mm
16:58 20.9 °C 4.4 °C 1008.0 hPa South 9.3 km/h 9.3 km/h 34 % 0.0 mm
17:03 21.5 °C 4.9 °C 1008.0 hPa SW 2.6 km/h 2.6 km/h 34 % 0.0 mm
17:08 21.5 °C 4.6 °C 1008.0 hPa WSW 9.5 km/h 9.5 km/h 33 % 0.0 mm
17:13 21.1 °C 4.2 °C 1008.0 hPa WSW 16.7 km/h 16.7 km/h 33 % 0.0 mm
17:18 21.1 °C 4.2 °C 1008.0 hPa SW 11.1 km/h 11.1 km/h 33 % 0.0 mm
17:23 21.1 °C 4.2 °C 1008.0 hPa SW 9.3 km/h 9.3 km/h 33 % 0.0 mm
17:28 21.1 °C 4.2 °C 1008.0 hPa West 9.3 km/h 10.8 km/h 33 % 0.0 mm
17:33 21.1 °C 4.2 °C 1008.0 hPa WSW 9.3 km/h 9.3 km/h 33 % 0.0 mm
17:38 21.1 °C 4.2 °C 1008.0 hPa SW 7.4 km/h 7.4 km/h 33 % 0.0 mm
17:43 21.2 °C 4.3 °C 1008.0 hPa WSW 13.0 km/h 13.0 km/h 33 % 0.0 mm
17:48 21.1 °C 4.2 °C 1007.0 hPa SE 9.3 km/h 9.3 km/h 33 % 0.0 mm
17:53 21.1 °C 3.8 °C 1007.0 hPa WNW 11.1 km/h 11.1 km/h 32 % 0.0 mm
17:58 21.1 °C 3.8 °C 1007.0 hPa WSW 7.4 km/h 7.4 km/h 32 % 0.0 mm
18:03 21.0 °C 4.1 °C 1008.0 hPa West 13.0 km/h 13.0 km/h 33 % 0.0 mm
18:08 21.0 °C 3.7 °C 1008.0 hPa WSW 14.8 km/h 14.8 km/h 32 % 0.0 mm
18:13 21.1 °C 3.8 °C 1008.0 hPa WSW 11.1 km/h 11.1 km/h 32 % 0.0 mm
18:18 20.9 °C 4.0 °C 1009.0 hPa SW 9.3 km/h 9.3 km/h 33 % 0.0 mm
18:23 21.3 °C 3.9 °C 1009.0 hPa WSW 7.4 km/h 7.4 km/h 32 % 0.0 mm
18:28 21.3 °C 3.9 °C 1009.0 hPa SW 10.3 km/h 10.3 km/h 32 % 0.0 mm
18:33 20.6 °C 4.2 °C 1008.0 hPa WNW 11.1 km/h 11.1 km/h 34 % 0.0 mm
18:38 19.9 °C 4.4 °C 1008.0 hPa South 20.4 km/h 20.4 km/h 36 % 0.0 mm
18:43 19.4 °C 4.7 °C 1008.0 hPa SW 7.9 km/h 7.9 km/h 38 % 0.0 mm
18:48 19.0 °C 4.7 °C 1008.0 hPa SSW 14.8 km/h 14.8 km/h 39 % 0.0 mm
18:53 18.8 °C 4.9 °C 1008.0 hPa WSW 11.1 km/h 11.1 km/h 40 % 0.0 mm
18:58 18.5 °C 5.0 °C 1008.0 hPa SSW 11.1 km/h 11.1 km/h 41 % 0.0 mm
19:08 18.1 °C 5.3 °C 1008.0 hPa SW 11.1 km/h 11.1 km/h 43 % 0.0 mm
19:13 17.4 °C 5.0 °C 1008.0 hPa SW 9.3 km/h 9.3 km/h 44 % 0.0 mm
19:28 16.5 °C 4.8 °C 1009.0 hPa WSW 13.7 km/h 13.7 km/h 46 % 0.0 mm
19:33 16.3 °C 5.3 °C 1009.0 hPa WSW 7.4 km/h 9.0 km/h 48 % 0.0 mm
19:38 16.1 °C 5.1 °C 1009.0 hPa SW 11.1 km/h 11.1 km/h 48 % 0.0 mm
19:48 15.7 °C 5.3 °C 1010.0 hPa SW 11.1 km/h 11.1 km/h 50 % 0.0 mm
19:53 15.6 °C 5.5 °C 1010.0 hPa SW 7.4 km/h 7.4 km/h 51 % 0.0 mm
19:58 15.5 °C 5.4 °C 1010.0 hPa SW 3.7 km/h 3.9 km/h 51 % 0.0 mm
20:03 15.3 °C 5.2 °C 1010.0 hPa WSW 5.6 km/h 5.6 km/h 51 % 0.0 mm
20:08 15.1 °C 5.1 °C 1010.0 hPa WSW 7.4 km/h 7.4 km/h 51 % 0.0 mm
20:13 14.9 °C 4.8 °C 1010.0 hPa West 2.6 km/h 5.3 km/h 51 % 0.0 mm
20:18 14.8 °C 4.8 °C 1010.0 hPa ESE 2.3 km/h   51 % 0.0 mm
20:23 14.7 °C 4.7 °C 1010.0 hPa West 5.6 km/h 5.6 km/h 51 % 0.0 mm
20:28 14.6 °C 4.6 °C 1010.0 hPa West 11.1 km/h 11.1 km/h 51 % 0.0 mm
20:38 14.3 °C 4.3 °C 1009.0 hPa WSW 4.2 km/h 4.2 km/h 51 % 0.0 mm
20:43 14.2 °C 4.2 °C 1009.0 hPa West 5.0 km/h 5.0 km/h 51 % 0.0 mm
20:48 14.1 °C 4.1 °C 1010.0 hPa WSW 3.9 km/h 3.9 km/h 51 % 0.0 mm
20:53 14.0 °C 4.0 °C 1010.0 hPa WSW 5.3 km/h 5.3 km/h 51 % 0.0 mm
20:58 13.9 °C 4.2 °C 1010.0 hPa WSW 9.3 km/h 9.3 km/h 52 % 0.0 mm
21:03 13.7 °C 4.0 °C 1010.7 hPa WNW 7.4 km/h 7.4 km/h 52 % 0.0 mm
21:08 13.6 °C 4.2 °C 1010.7 hPa WSW 11.1 km/h 11.1 km/h 53 % 0.0 mm
21:13 13.3 °C 3.9 °C 1010.7 hPa SW 6.1 km/h 6.1 km/h 53 % 0.0 mm
21:18 13.2 °C 3.8 °C 1010.7 hPa SW 5.6 km/h 5.6 km/h 53 % 0.0 mm
21:23 13.1 °C 4.0 °C 1010.7 hPa SW 5.6 km/h 5.6 km/h 54 % 0.0 mm
21:33 12.9 °C 4.1 °C 1010.7 hPa SW 4.7 km/h 6.4 km/h 55 % 0.0 mm
21:38 12.9 °C 4.1 °C 1010.7 hPa SW 13.0 km/h 13.0 km/h 55 % 0.0 mm
21:43 12.8 °C 4.0 °C 1010.7 hPa SSW 4.2 km/h 5.8 km/h 55 % 0.0 mm
21:53 12.7 °C 3.9 °C 1010.7 hPa WSW 5.6 km/h 5.6 km/h 55 % 0.0 mm
21:58 12.6 °C 3.8 °C 1010.7 hPa WSW 5.6 km/h 5.6 km/h 55 % 0.0 mm
22:03 12.5 °C 3.7 °C 1011.7 hPa WSW 7.4 km/h 7.4 km/h 55 % 0.0 mm
22:08 12.3 °C 3.8 °C 1011.7 hPa Calm     56 % 0.0 mm
22:13 12.3 °C 3.5 °C 1011.7 hPa SW 5.6 km/h 5.6 km/h 55 % 0.0 mm
22:18 12.2 °C 3.7 °C 1011.7 hPa SW 7.4 km/h 7.4 km/h 56 % 0.0 mm
22:23 12.1 °C 3.6 °C 1011.7 hPa Calm     56 % 0.0 mm
22:28 12.0 °C 3.5 °C 1011.7 hPa Calm     56 % 0.0 mm
22:33 11.9 °C 3.7 °C 1011.7 hPa Calm     57 % 0.0 mm
22:38 11.8 °C 3.6 °C 1011.7 hPa Calm     57 % 0.0 mm
22:43 11.7 °C 3.7 °C 1011.7 hPa Calm     58 % 0.0 mm
22:48 11.6 °C 3.6 °C 1011.7 hPa Calm     58 % 0.0 mm
22:53 11.6 °C 3.6 °C 1011.7 hPa WNW 2.3 km/h 2.3 km/h 58 % 0.0 mm
22:58 11.6 °C 3.8 °C 1011.7 hPa Calm     59 % 0.0 mm
23:03 11.6 °C 3.8 °C 1010.7 hPa Calm     59 % 0.0 mm
23:08 11.6 °C 4.1 °C 1010.7 hPa NNE 5.6 km/h 5.6 km/h 60 % 0.0 mm
23:13 11.6 °C 4.1 °C 1010.7 hPa NNE 1.9 km/h   60 % 0.0 mm
23:18 11.6 °C 4.1 °C 1011.7 hPa NNE 2.6 km/h 2.6 km/h 60 % 0.0 mm
23:23 11.7 °C 4.2 °C 1011.7 hPa Calm     60 % 0.0 mm
23:33 11.5 °C 4.0 °C 1011.7 hPa Calm     60 % 0.0 mm
23:38 11.4 °C 3.9 °C 1011.7 hPa Calm     60 % 0.0 mm
23:48 11.3 °C 3.8 °C 1011.7 hPa Calm     60 % 0.0 mm
Meteo Sesrovires
Elogis d' Weather Underground - 3.5 mb

Guio original per  Jim McMurry - jmcmurry@mwt.net Adaptat per a la plantilla per  Wim van der Kuil - Leuven-Template.eu

Trobareu la nostra informacio del temps tambe a:

Weather Underground

AWEKAS